sensor_id;sensor_type;location;lat;lon;timestamp;P1;durP1;ratioP1;P2;durP2;ratioP2
17686;SDS011;8962;52.538;13.266;2022-09-29T00:02:11;10.90;;;6.85;;
17686;SDS011;8962;52.538;13.266;2022-09-29T00:04:38;10.57;;;7.20;;
17686;SDS011;8962;52.538;13.266;2022-09-29T00:07:05;11.20;;;7.93;;
17686;SDS011;8962;52.538;13.266;2022-09-29T00:09:32;11.35;;;7.50;;
17686;SDS011;8962;52.538;13.266;2022-09-29T00:11:59;11.65;;;7.68;;
17686;SDS011;8962;52.538;13.266;2022-09-29T00:14:26;11.82;;;8.05;;
17686;SDS011;8962;52.538;13.266;2022-09-29T00:16:53;10.35;;;6.97;;
17686;SDS011;8962;52.538;13.266;2022-09-29T00:19:22;11.32;;;7.90;;
17686;SDS011;8962;52.538;13.266;2022-09-29T00:21:51;10.20;;;7.80;;
17686;SDS011;8962;52.538;13.266;2022-09-29T00:24:19;11.85;;;7.53;;
17686;SDS011;8962;52.538;13.266;2022-09-29T00:26:46;13.82;;;7.95;;
17686;SDS011;8962;52.538;13.266;2022-09-29T00:29:16;9.73;;;7.28;;
17686;SDS011;8962;52.538;13.266;2022-09-29T00:31:43;10.75;;;8.10;;
17686;SDS011;8962;52.538;13.266;2022-09-29T00:34:10;11.10;;;7.40;;
17686;SDS011;8962;52.538;13.266;2022-09-29T00:36:39;12.23;;;7.85;;
17686;SDS011;8962;52.538;13.266;2022-09-29T00:39:06;12.65;;;8.10;;
17686;SDS011;8962;52.538;13.266;2022-09-29T00:41:34;11.50;;;6.85;;
17686;SDS011;8962;52.538;13.266;2022-09-29T00:44:03;10.52;;;7.30;;
17686;SDS011;8962;52.538;13.266;2022-09-29T00:46:54;11.88;;;7.70;;
17686;SDS011;8962;52.538;13.266;2022-09-29T00:49:25;12.15;;;8.57;;
17686;SDS011;8962;52.538;13.266;2022-09-29T00:52:00;14.32;;;8.95;;
17686;SDS011;8962;52.538;13.266;2022-09-29T00:54:31;11.02;;;8.15;;
17686;SDS011;8962;52.538;13.266;2022-09-29T00:57:04;14.80;;;8.65;;
17686;SDS011;8962;52.538;13.266;2022-09-29T00:59:38;13.65;;;9.20;;
17686;SDS011;8962;52.538;13.266;2022-09-29T01:02:11;11.32;;;8.77;;
17686;SDS011;8962;52.538;13.266;2022-09-29T01:04:39;13.32;;;8.45;;
17686;SDS011;8962;52.538;13.266;2022-09-29T01:07:08;12.15;;;8.73;;
17686;SDS011;8962;52.538;13.266;2022-09-29T01:09:37;13.90;;;8.88;;
17686;SDS011;8962;52.538;13.266;2022-09-29T01:12:06;13.02;;;8.95;;
17686;SDS011;8962;52.538;13.266;2022-09-29T01:14:34;13.50;;;9.40;;
17686;SDS011;8962;52.538;13.266;2022-09-29T01:17:03;11.68;;;8.77;;
17686;SDS011;8962;52.538;13.266;2022-09-29T01:19:34;13.55;;;8.77;;
17686;SDS011;8962;52.538;13.266;2022-09-29T01:22:10;16.00;;;8.82;;
17686;SDS011;8962;52.538;13.266;2022-09-29T01:24:57;12.38;;;8.50;;
17686;SDS011;8962;52.538;13.266;2022-09-29T01:27:44;11.45;;;8.00;;
17686;SDS011;8962;52.538;13.266;2022-09-29T01:30:45;10.45;;;7.70;;
17686;SDS011;8962;52.538;13.266;2022-09-29T01:33:29;13.48;;;8.38;;
17686;SDS011;8962;52.538;13.266;2022-09-29T01:36:03;14.52;;;9.23;;
17686;SDS011;8962;52.538;13.266;2022-09-29T01:38:40;13.60;;;8.73;;
17686;SDS011;8962;52.538;13.266;2022-09-29T01:41:17;12.63;;;8.60;;
17686;SDS011;8962;52.538;13.266;2022-09-29T01:43:52;15.13;;;9.20;;
17686;SDS011;8962;52.538;13.266;2022-09-29T01:46:26;16.70;;;9.70;;
17686;SDS011;8962;52.538;13.266;2022-09-29T01:48:58;12.57;;;8.75;;
17686;SDS011;8962;52.538;13.266;2022-09-29T01:51:29;13.45;;;9.48;;
17686;SDS011;8962;52.538;13.266;2022-09-29T01:54:10;13.18;;;9.40;;
17686;SDS011;8962;52.538;13.266;2022-09-29T01:56:43;14.30;;;9.65;;
17686;SDS011;8962;52.538;13.266;2022-09-29T01:59:17;14.32;;;9.27;;
17686;SDS011;8962;52.538;13.266;2022-09-29T02:01:51;13.43;;;9.45;;
17686;SDS011;8962;52.538;13.266;2022-09-29T02:04:24;14.27;;;10.05;;
17686;SDS011;8962;52.538;13.266;2022-09-29T02:06:55;16.35;;;9.40;;
17686;SDS011;8962;52.538;13.266;2022-09-29T02:09:29;16.92;;;9.95;;
17686;SDS011;8962;52.538;13.266;2022-09-29T02:12:01;15.93;;;10.15;;
17686;SDS011;8962;52.538;13.266;2022-09-29T02:14:31;15.23;;;10.13;;
17686;SDS011;8962;52.538;13.266;2022-09-29T02:17:04;12.82;;;9.27;;
17686;SDS011;8962;52.538;13.266;2022-09-29T02:19:38;14.82;;;9.40;;
17686;SDS011;8962;52.538;13.266;2022-09-29T02:22:07;12.98;;;9.73;;
17686;SDS011;8962;52.538;13.266;2022-09-29T02:24:35;13.43;;;8.85;;
17686;SDS011;8962;52.538;13.266;2022-09-29T02:27:03;14.55;;;9.70;;
17686;SDS011;8962;52.538;13.266;2022-09-29T02:29:32;13.52;;;9.55;;
17686;SDS011;8962;52.538;13.266;2022-09-29T02:32:01;13.13;;;9.50;;
17686;SDS011;8962;52.538;13.266;2022-09-29T02:34:34;12.07;;;8.90;;
17686;SDS011;8962;52.538;13.266;2022-09-29T02:37:10;14.88;;;9.73;;
17686;SDS011;8962;52.538;13.266;2022-09-29T02:40:15;13.35;;;9.52;;
17686;SDS011;8962;52.538;13.266;2022-09-29T02:43:01;14.70;;;10.40;;
17686;SDS011;8962;52.538;13.266;2022-09-29T02:45:41;16.02;;;10.35;;
17686;SDS011;8962;52.538;13.266;2022-09-29T02:48:24;15.20;;;10.73;;
17686;SDS011;8962;52.538;13.266;2022-09-29T02:51:12;15.98;;;10.95;;
17686;SDS011;8962;52.538;13.266;2022-09-29T02:53:54;16.67;;;11.90;;
17686;SDS011;8962;52.538;13.266;2022-09-29T02:56:36;14.73;;;10.88;;
17686;SDS011;8962;52.538;13.266;2022-09-29T02:59:10;15.45;;;11.13;;
17686;SDS011;8962;52.538;13.266;2022-09-29T03:01:46;17.70;;;11.45;;
17686;SDS011;8962;52.538;13.266;2022-09-29T03:04:17;16.27;;;12.10;;
17686;SDS011;8962;52.538;13.266;2022-09-29T03:06:47;16.20;;;11.32;;
17686;SDS011;8962;52.538;13.266;2022-09-29T03:09:16;16.75;;;11.50;;
17686;SDS011;8962;52.538;13.266;2022-09-29T03:11:44;17.02;;;12.25;;
17686;SDS011;8962;52.538;13.266;2022-09-29T03:14:11;16.02;;;11.82;;
17686;SDS011;8962;52.538;13.266;2022-09-29T03:16:39;14.60;;;11.07;;
17686;SDS011;8962;52.538;13.266;2022-09-29T03:19:07;23.45;;;11.73;;
17686;SDS011;8962;52.538;13.266;2022-09-29T03:21:37;16.88;;;12.13;;
17686;SDS011;8962;52.538;13.266;2022-09-29T03:24:05;17.52;;;12.32;;
17686;SDS011;8962;52.538;13.266;2022-09-29T03:26:32;14.95;;;11.90;;
17686;SDS011;8962;52.538;13.266;2022-09-29T03:29:00;16.70;;;12.45;;
17686;SDS011;8962;52.538;13.266;2022-09-29T03:31:28;15.90;;;12.48;;
17686;SDS011;8962;52.538;13.266;2022-09-29T03:33:55;18.25;;;11.77;;
17686;SDS011;8962;52.538;13.266;2022-09-29T03:36:23;16.35;;;11.80;;
17686;SDS011;8962;52.538;13.266;2022-09-29T03:38:53;16.70;;;12.50;;
17686;SDS011;8962;52.538;13.266;2022-09-29T03:41:20;17.30;;;12.13;;
17686;SDS011;8962;52.538;13.266;2022-09-29T03:43:48;19.95;;;13.40;;
17686;SDS011;8962;52.538;13.266;2022-09-29T03:46:15;16.85;;;12.55;;
17686;SDS011;8962;52.538;13.266;2022-09-29T03:48:42;16.95;;;12.30;;
17686;SDS011;8962;52.538;13.266;2022-09-29T03:51:09;18.23;;;12.73;;
17686;SDS011;8962;52.538;13.266;2022-09-29T03:53:36;17.25;;;12.75;;
17686;SDS011;8962;52.538;13.266;2022-09-29T03:56:05;17.92;;;12.20;;
17686;SDS011;8962;52.538;13.266;2022-09-29T03:58:33;15.75;;;12.20;;
17686;SDS011;8962;52.538;13.266;2022-09-29T04:01:04;17.42;;;13.07;;
17686;SDS011;8962;52.538;13.266;2022-09-29T04:03:32;17.38;;;12.45;;
17686;SDS011;8962;52.538;13.266;2022-09-29T04:06:10;19.02;;;13.13;;
17686;SDS011;8962;52.538;13.266;2022-09-29T04:08:38;17.63;;;12.93;;
17686;SDS011;8962;52.538;13.266;2022-09-29T04:11:06;17.48;;;12.55;;
17686;SDS011;8962;52.538;13.266;2022-09-29T04:13:36;19.58;;;13.50;;
17686;SDS011;8962;52.538;13.266;2022-09-29T04:16:05;19.88;;;13.68;;
17686;SDS011;8962;52.538;13.266;2022-09-29T04:18:33;16.08;;;11.75;;
17686;SDS011;8962;52.538;13.266;2022-09-29T04:21:04;18.42;;;13.00;;
17686;SDS011;8962;52.538;13.266;2022-09-29T04:23:34;19.50;;;13.57;;
17686;SDS011;8962;52.538;13.266;2022-09-29T04:26:08;17.42;;;12.63;;
17686;SDS011;8962;52.538;13.266;2022-09-29T04:28:35;21.75;;;13.93;;
17686;SDS011;8962;52.538;13.266;2022-09-29T04:31:04;20.15;;;13.52;;
17686;SDS011;8962;52.538;13.266;2022-09-29T04:33:37;21.80;;;13.23;;
17686;SDS011;8962;52.538;13.266;2022-09-29T04:36:07;23.75;;;14.68;;
17686;SDS011;8962;52.538;13.266;2022-09-29T04:38:34;22.98;;;14.40;;
17686;SDS011;8962;52.538;13.266;2022-09-29T04:41:01;20.42;;;13.90;;
17686;SDS011;8962;52.538;13.266;2022-09-29T04:43:33;20.95;;;14.40;;
17686;SDS011;8962;52.538;13.266;2022-09-29T04:46:09;21.52;;;13.93;;
17686;SDS011;8962;52.538;13.266;2022-09-29T04:48:59;20.00;;;13.75;;
17686;SDS011;8962;52.538;13.266;2022-09-29T04:51:30;21.77;;;14.40;;
17686;SDS011;8962;52.538;13.266;2022-09-29T04:53:58;24.30;;;14.88;;
17686;SDS011;8962;52.538;13.266;2022-09-29T04:56:34;22.40;;;15.02;;
17686;SDS011;8962;52.538;13.266;2022-09-29T04:59:13;22.50;;;14.25;;
17686;SDS011;8962;52.538;13.266;2022-09-29T05:01:43;21.98;;;14.30;;
17686;SDS011;8962;52.538;13.266;2022-09-29T05:04:10;21.67;;;13.85;;
17686;SDS011;8962;52.538;13.266;2022-09-29T05:06:38;23.50;;;14.60;;
17686;SDS011;8962;52.538;13.266;2022-09-29T05:09:05;23.25;;;14.70;;
17686;SDS011;8962;52.538;13.266;2022-09-29T05:11:36;22.63;;;14.70;;
17686;SDS011;8962;52.538;13.266;2022-09-29T05:14:04;22.13;;;14.25;;
17686;SDS011;8962;52.538;13.266;2022-09-29T05:16:33;23.05;;;13.93;;
17686;SDS011;8962;52.538;13.266;2022-09-29T05:19:00;22.52;;;14.73;;
17686;SDS011;8962;52.538;13.266;2022-09-29T05:21:30;23.08;;;14.55;;
17686;SDS011;8962;52.538;13.266;2022-09-29T05:23:59;23.48;;;15.13;;
17686;SDS011;8962;52.538;13.266;2022-09-29T05:26:26;22.77;;;14.60;;
17686;SDS011;8962;52.538;13.266;2022-09-29T05:29:01;23.42;;;15.02;;
17686;SDS011;8962;52.538;13.266;2022-09-29T05:31:29;23.85;;;14.95;;
17686;SDS011;8962;52.538;13.266;2022-09-29T05:34:02;22.40;;;14.77;;
17686;SDS011;8962;52.538;13.266;2022-09-29T05:36:35;23.45;;;15.85;;
17686;SDS011;8962;52.538;13.266;2022-09-29T05:39:16;22.08;;;15.55;;
17686;SDS011;8962;52.538;13.266;2022-09-29T05:41:45;22.55;;;15.82;;
17686;SDS011;8962;52.538;13.266;2022-09-29T05:44:15;22.77;;;15.40;;
17686;SDS011;8962;52.538;13.266;2022-09-29T05:46:43;24.95;;;16.52;;
17686;SDS011;8962;52.538;13.266;2022-09-29T05:49:11;26.33;;;15.85;;
17686;SDS011;8962;52.538;13.266;2022-09-29T05:51:39;25.63;;;15.57;;
17686;SDS011;8962;52.538;13.266;2022-09-29T05:54:07;22.48;;;14.82;;
17686;SDS011;8962;52.538;13.266;2022-09-29T05:56:34;24.25;;;14.50;;
17686;SDS011;8962;52.538;13.266;2022-09-29T05:59:03;23.40;;;14.43;;
17686;SDS011;8962;52.538;13.266;2022-09-29T06:01:30;20.95;;;14.07;;
17686;SDS011;8962;52.538;13.266;2022-09-29T06:03:58;24.15;;;14.23;;
17686;SDS011;8962;52.538;13.266;2022-09-29T06:06:27;21.80;;;14.13;;
17686;SDS011;8962;52.538;13.266;2022-09-29T06:08:54;21.88;;;14.27;;
17686;SDS011;8962;52.538;13.266;2022-09-29T06:11:24;23.73;;;14.95;;
17686;SDS011;8962;52.538;13.266;2022-09-29T06:13:53;22.85;;;15.07;;
17686;SDS011;8962;52.538;13.266;2022-09-29T06:16:22;19.98;;;13.70;;
17686;SDS011;8962;52.538;13.266;2022-09-29T06:18:50;21.00;;;14.20;;
17686;SDS011;8962;52.538;13.266;2022-09-29T06:21:19;23.90;;;14.07;;
17686;SDS011;8962;52.538;13.266;2022-09-29T06:23:52;23.10;;;15.15;;
17686;SDS011;8962;52.538;13.266;2022-09-29T06:26:21;23.65;;;14.50;;
17686;SDS011;8962;52.538;13.266;2022-09-29T06:28:49;22.70;;;14.52;;
17686;SDS011;8962;52.538;13.266;2022-09-29T06:31:17;24.35;;;13.73;;
17686;SDS011;8962;52.538;13.266;2022-09-29T06:33:45;24.30;;;14.27;;
17686;SDS011;8962;52.538;13.266;2022-09-29T06:36:15;23.95;;;14.02;;
17686;SDS011;8962;52.538;13.266;2022-09-29T06:39:03;29.13;;;15.60;;
17686;SDS011;8962;52.538;13.266;2022-09-29T06:41:31;26.08;;;14.57;;
17686;SDS011;8962;52.538;13.266;2022-09-29T06:43:59;29.63;;;14.55;;
17686;SDS011;8962;52.538;13.266;2022-09-29T06:46:27;33.30;;;15.82;;
17686;SDS011;8962;52.538;13.266;2022-09-29T06:48:54;21.30;;;13.75;;
17686;SDS011;8962;52.538;13.266;2022-09-29T06:51:21;22.92;;;14.25;;
17686;SDS011;8962;52.538;13.266;2022-09-29T06:53:49;22.45;;;13.43;;
17686;SDS011;8962;52.538;13.266;2022-09-29T06:56:18;17.70;;;11.70;;
17686;SDS011;8962;52.538;13.266;2022-09-29T06:58:46;20.20;;;12.88;;
17686;SDS011;8962;52.538;13.266;2022-09-29T07:01:22;22.08;;;13.23;;
17686;SDS011;8962;52.538;13.266;2022-09-29T07:03:49;19.77;;;12.48;;
17686;SDS011;8962;52.538;13.266;2022-09-29T07:06:16;20.60;;;12.45;;
17686;SDS011;8962;52.538;13.266;2022-09-29T07:08:43;20.98;;;12.85;;
17686;SDS011;8962;52.538;13.266;2022-09-29T07:11:11;19.52;;;12.20;;
17686;SDS011;8962;52.538;13.266;2022-09-29T07:13:44;23.00;;;13.48;;
17686;SDS011;8962;52.538;13.266;2022-09-29T07:16:12;25.92;;;14.10;;
17686;SDS011;8962;52.538;13.266;2022-09-29T07:18:39;26.75;;;13.45;;
17686;SDS011;8962;52.538;13.266;2022-09-29T07:21:07;16.38;;;11.00;;
17686;SDS011;8962;52.538;13.266;2022-09-29T07:23:36;18.33;;;11.55;;
17686;SDS011;8962;52.538;13.266;2022-09-29T07:26:06;18.65;;;11.52;;
17686;SDS011;8962;52.538;13.266;2022-09-29T07:28:34;15.57;;;11.10;;
17686;SDS011;8962;52.538;13.266;2022-09-29T07:31:04;15.95;;;11.25;;
17686;SDS011;8962;52.538;13.266;2022-09-29T07:33:32;17.52;;;11.52;;
17686;SDS011;8962;52.538;13.266;2022-09-29T07:35:59;16.88;;;11.73;;
17686;SDS011;8962;52.538;13.266;2022-09-29T07:38:28;17.20;;;12.25;;
17686;SDS011;8962;52.538;13.266;2022-09-29T07:40:58;17.25;;;11.63;;
17686;SDS011;8962;52.538;13.266;2022-09-29T07:43:28;16.98;;;11.25;;
17686;SDS011;8962;52.538;13.266;2022-09-29T07:45:57;20.08;;;12.80;;
17686;SDS011;8962;52.538;13.266;2022-09-29T07:48:26;17.45;;;12.43;;
17686;SDS011;8962;52.538;13.266;2022-09-29T07:50:58;18.02;;;12.32;;
17686;SDS011;8962;52.538;13.266;2022-09-29T07:53:27;18.02;;;12.68;;
17686;SDS011;8962;52.538;13.266;2022-09-29T07:55:55;20.73;;;12.95;;
17686;SDS011;8962;52.538;13.266;2022-09-29T07:58:29;20.00;;;12.60;;
17686;SDS011;8962;52.538;13.266;2022-09-29T08:00:57;17.52;;;12.40;;
17686;SDS011;8962;52.538;13.266;2022-09-29T08:03:27;18.83;;;12.25;;
17686;SDS011;8962;52.538;13.266;2022-09-29T08:05:54;20.63;;;13.10;;
17686;SDS011;8962;52.538;13.266;2022-09-29T08:08:23;16.35;;;12.35;;
17686;SDS011;8962;52.538;13.266;2022-09-29T08:10:59;18.25;;;12.02;;
17686;SDS011;8962;52.538;13.266;2022-09-29T08:13:28;16.42;;;11.82;;
17686;SDS011;8962;52.538;13.266;2022-09-29T08:15:57;20.15;;;12.88;;
17686;SDS011;8962;52.538;13.266;2022-09-29T08:18:28;16.48;;;12.50;;
17686;SDS011;8962;52.538;13.266;2022-09-29T08:20:56;20.20;;;13.15;;
17686;SDS011;8962;52.538;13.266;2022-09-29T08:23:23;17.55;;;12.75;;
17686;SDS011;8962;52.538;13.266;2022-09-29T08:25:57;19.20;;;12.15;;
17686;SDS011;8962;52.538;13.266;2022-09-29T08:28:25;21.75;;;12.65;;
17686;SDS011;8962;52.538;13.266;2022-09-29T08:30:52;16.20;;;11.30;;
17686;SDS011;8962;52.538;13.266;2022-09-29T08:33:19;15.25;;;11.65;;
17686;SDS011;8962;52.538;13.266;2022-09-29T08:35:52;17.45;;;13.25;;
17686;SDS011;8962;52.538;13.266;2022-09-29T08:38:21;16.88;;;12.32;;
17686;SDS011;8962;52.538;13.266;2022-09-29T08:40:47;17.85;;;13.75;;
17686;SDS011;8962;52.538;13.266;2022-09-29T08:43:15;17.92;;;12.55;;
17686;SDS011;8962;52.538;13.266;2022-09-29T08:45:52;16.58;;;12.35;;
17686;SDS011;8962;52.538;13.266;2022-09-29T08:48:23;15.13;;;12.07;;
17686;SDS011;8962;52.538;13.266;2022-09-29T08:50:56;20.67;;;14.13;;
17686;SDS011;8962;52.538;13.266;2022-09-29T08:53:27;19.38;;;12.07;;
17686;SDS011;8962;52.538;13.266;2022-09-29T08:55:58;16.48;;;11.82;;
17686;SDS011;8962;52.538;13.266;2022-09-29T08:58:27;17.45;;;13.80;;
17686;SDS011;8962;52.538;13.266;2022-09-29T09:01:09;19.55;;;12.80;;
17686;SDS011;8962;52.538;13.266;2022-09-29T09:03:51;16.73;;;11.50;;
17686;SDS011;8962;52.538;13.266;2022-09-29T09:06:33;20.23;;;13.30;;
17686;SDS011;8962;52.538;13.266;2022-09-29T09:09:18;18.63;;;12.93;;
17686;SDS011;8962;52.538;13.266;2022-09-29T09:12:30;16.42;;;12.15;;
17686;SDS011;8962;52.538;13.266;2022-09-29T09:15:17;20.38;;;12.27;;
17686;SDS011;8962;52.538;13.266;2022-09-29T09:18:08;19.20;;;12.25;;
17686;SDS011;8962;52.538;13.266;2022-09-29T09:20:51;25.60;;;18.88;;
17686;SDS011;8962;52.538;13.266;2022-09-29T09:23:26;15.90;;;11.00;;
17686;SDS011;8962;52.538;13.266;2022-09-29T09:26:00;17.83;;;11.20;;
17686;SDS011;8962;52.538;13.266;2022-09-29T09:28:29;15.32;;;11.35;;
17686;SDS011;8962;52.538;13.266;2022-09-29T09:31:02;14.13;;;9.68;;
17686;SDS011;8962;52.538;13.266;2022-09-29T09:33:36;14.32;;;11.02;;
17686;SDS011;8962;52.538;13.266;2022-09-29T09:36:10;14.13;;;11.02;;
17686;SDS011;8962;52.538;13.266;2022-09-29T09:38:45;13.68;;;9.82;;
17686;SDS011;8962;52.538;13.266;2022-09-29T09:41:19;16.75;;;10.52;;
17686;SDS011;8962;52.538;13.266;2022-09-29T09:43:50;15.32;;;10.73;;
17686;SDS011;8962;52.538;13.266;2022-09-29T09:46:25;15.98;;;10.15;;
17686;SDS011;8962;52.538;13.266;2022-09-29T09:48:57;12.43;;;10.02;;
17686;SDS011;8962;52.538;13.266;2022-09-29T09:51:34;14.35;;;9.85;;
17686;SDS011;8962;52.538;13.266;2022-09-29T09:54:14;15.23;;;9.02;;
17686;SDS011;8962;52.538;13.266;2022-09-29T09:56:54;12.63;;;9.00;;
17686;SDS011;8962;52.538;13.266;2022-09-29T09:59:32;14.98;;;10.20;;
17686;SDS011;8962;52.538;13.266;2022-09-29T10:02:11;18.90;;;11.13;;
17686;SDS011;8962;52.538;13.266;2022-09-29T10:04:47;18.52;;;10.38;;
17686;SDS011;8962;52.538;13.266;2022-09-29T10:07:18;11.93;;;8.95;;
17686;SDS011;8962;52.538;13.266;2022-09-29T10:09:47;11.02;;;7.90;;
17686;SDS011;8962;52.538;13.266;2022-09-29T10:12:16;9.95;;;7.50;;
17686;SDS011;8962;52.538;13.266;2022-09-29T10:14:46;10.15;;;7.70;;
17686;SDS011;8962;52.538;13.266;2022-09-29T10:17:21;6.95;;;5.50;;
17686;SDS011;8962;52.538;13.266;2022-09-29T10:19:52;43.38;;;18.10;;
17686;SDS011;8962;52.538;13.266;2022-09-29T10:22:23;10.23;;;7.13;;
17686;SDS011;8962;52.538;13.266;2022-09-29T10:24:55;11.07;;;7.03;;
17686;SDS011;8962;52.538;13.266;2022-09-29T10:27:34;12.93;;;8.35;;
17686;SDS011;8962;52.538;13.266;2022-09-29T10:30:15;11.40;;;6.85;;
17686;SDS011;8962;52.538;13.266;2022-09-29T10:32:44;8.70;;;6.18;;
17686;SDS011;8962;52.538;13.266;2022-09-29T10:35:16;8.60;;;6.20;;
17686;SDS011;8962;52.538;13.266;2022-09-29T10:37:50;9.57;;;6.45;;
17686;SDS011;8962;52.538;13.266;2022-09-29T10:40:26;13.73;;;8.32;;
17686;SDS011;8962;52.538;13.266;2022-09-29T10:42:54;12.07;;;7.57;;
17686;SDS011;8962;52.538;13.266;2022-09-29T10:45:23;8.50;;;6.00;;
17686;SDS011;8962;52.538;13.266;2022-09-29T10:48:06;8.15;;;6.20;;
17686;SDS011;8962;52.538;13.266;2022-09-29T10:50:47;11.93;;;6.72;;
17686;SDS011;8962;52.538;13.266;2022-09-29T10:53:18;12.60;;;7.45;;
17686;SDS011;8962;52.538;13.266;2022-09-29T10:55:59;21.42;;;11.13;;
17686;SDS011;8962;52.538;13.266;2022-09-29T10:58:30;11.32;;;8.20;;
17686;SDS011;8962;52.538;13.266;2022-09-29T11:01:04;17.92;;;9.43;;
17686;SDS011;8962;52.538;13.266;2022-09-29T11:03:36;12.70;;;8.35;;
17686;SDS011;8962;52.538;13.266;2022-09-29T11:06:05;70.63;;;42.80;;
17686;SDS011;8962;52.538;13.266;2022-09-29T11:11:37;8.60;;;4.10;;
17686;SDS011;8962;52.538;13.266;2022-09-29T11:14:05;5.60;;;4.00;;
17686;SDS011;8962;52.538;13.266;2022-09-29T11:16:51;5.32;;;4.07;;
17686;SDS011;8962;52.538;13.266;2022-09-29T11:19:20;19.88;;;7.68;;
17686;SDS011;8962;52.538;13.266;2022-09-29T11:21:52;12.52;;;6.70;;
17686;SDS011;8962;52.538;13.266;2022-09-29T11:24:39;7.50;;;4.32;;
17686;SDS011;8962;52.538;13.266;2022-09-29T11:27:32;5.90;;;3.85;;
17686;SDS011;8962;52.538;13.266;2022-09-29T11:30:08;8.32;;;4.10;;
17686;SDS011;8962;52.538;13.266;2022-09-29T11:32:42;5.25;;;3.60;;
17686;SDS011;8962;52.538;13.266;2022-09-29T11:35:38;12.25;;;5.60;;
17686;SDS011;8962;52.538;13.266;2022-09-29T11:38:20;7.90;;;4.68;;
17686;SDS011;8962;52.538;13.266;2022-09-29T11:41:00;5.57;;;3.75;;
17686;SDS011;8962;52.538;13.266;2022-09-29T11:43:45;7.07;;;3.50;;
17686;SDS011;8962;52.538;13.266;2022-09-29T11:46:20;6.82;;;3.97;;
17686;SDS011;8962;52.538;13.266;2022-09-29T11:48:59;4.72;;;3.28;;
17686;SDS011;8962;52.538;13.266;2022-09-29T11:51:47;6.40;;;3.88;;
17686;SDS011;8962;52.538;13.266;2022-09-29T11:54:29;4.55;;;3.50;;
17686;SDS011;8962;52.538;13.266;2022-09-29T11:57:11;6.40;;;4.57;;
17686;SDS011;8962;52.538;13.266;2022-09-29T11:59:50;6.03;;;4.13;;
17686;SDS011;8962;52.538;13.266;2022-09-29T12:05:38;22.30;;;12.68;;
17686;SDS011;8962;52.538;13.266;2022-09-29T12:08:33;8.07;;;4.97;;
17686;SDS011;8962;52.538;13.266;2022-09-29T12:11:10;4.70;;;3.67;;
17686;SDS011;8962;52.538;13.266;2022-09-29T12:13:43;25.63;;;12.02;;
17686;SDS011;8962;52.538;13.266;2022-09-29T12:16:20;8.30;;;5.30;;
17686;SDS011;8962;52.538;13.266;2022-09-29T12:18:51;16.38;;;9.18;;
17686;SDS011;8962;52.538;13.266;2022-09-29T12:21:25;10.52;;;6.03;;
17686;SDS011;8962;52.538;13.266;2022-09-29T12:23:57;15.38;;;9.25;;
17686;SDS011;8962;52.538;13.266;2022-09-29T12:26:27;3.45;;;2.60;;
17686;SDS011;8962;52.538;13.266;2022-09-29T12:28:57;3.75;;;3.05;;
17686;SDS011;8962;52.538;13.266;2022-09-29T12:31:30;4.97;;;3.15;;
17686;SDS011;8962;52.538;13.266;2022-09-29T12:34:00;3.55;;;2.47;;
17686;SDS011;8962;52.538;13.266;2022-09-29T12:36:34;5.13;;;3.42;;
17686;SDS011;8962;52.538;13.266;2022-09-29T12:39:20;4.10;;;2.75;;
17686;SDS011;8962;52.538;13.266;2022-09-29T12:41:54;4.30;;;2.90;;
17686;SDS011;8962;52.538;13.266;2022-09-29T12:44:30;4.38;;;2.95;;
17686;SDS011;8962;52.538;13.266;2022-09-29T12:47:06;5.80;;;3.17;;
17686;SDS011;8962;52.538;13.266;2022-09-29T12:49:46;4.38;;;2.50;;
17686;SDS011;8962;52.538;13.266;2022-09-29T12:52:25;3.42;;;2.50;;
17686;SDS011;8962;52.538;13.266;2022-09-29T12:54:56;5.78;;;3.95;;
17686;SDS011;8962;52.538;13.266;2022-09-29T12:57:29;4.32;;;3.00;;
17686;SDS011;8962;52.538;13.266;2022-09-29T13:00:00;3.72;;;2.50;;
17686;SDS011;8962;52.538;13.266;2022-09-29T13:05:44;6.68;;;4.30;;
17686;SDS011;8962;52.538;13.266;2022-09-29T13:11:23;3.55;;;2.58;;
17686;SDS011;8962;52.538;13.266;2022-09-29T13:14:09;3.63;;;2.83;;
17686;SDS011;8962;52.538;13.266;2022-09-29T13:16:55;3.33;;;2.63;;
17686;SDS011;8962;52.538;13.266;2022-09-29T13:19:52;6.00;;;2.72;;
17686;SDS011;8962;52.538;13.266;2022-09-29T13:22:48;2.83;;;2.35;;
17686;SDS011;8962;52.538;13.266;2022-09-29T13:25:38;2.45;;;2.00;;
17686;SDS011;8962;52.538;13.266;2022-09-29T13:28:23;4.28;;;1.95;;
17686;SDS011;8962;52.538;13.266;2022-09-29T13:30:55;3.47;;;2.28;;
17686;SDS011;8962;52.538;13.266;2022-09-29T13:33:27;2.78;;;2.20;;
17686;SDS011;8962;52.538;13.266;2022-09-29T13:35:55;2.00;;;1.77;;
17686;SDS011;8962;52.538;13.266;2022-09-29T13:38:24;2.97;;;2.08;;
17686;SDS011;8962;52.538;13.266;2022-09-29T13:41:07;3.15;;;2.42;;
17686;SDS011;8962;52.538;13.266;2022-09-29T13:43:36;3.80;;;2.70;;
17686;SDS011;8962;52.538;13.266;2022-09-29T13:48:52;3.22;;;2.30;;
17686;SDS011;8962;52.538;13.266;2022-09-29T13:54:31;6.40;;;3.83;;
17686;SDS011;8962;52.538;13.266;2022-09-29T14:00:03;3.83;;;1.70;;
17686;SDS011;8962;52.538;13.266;2022-09-29T14:02:59;2.10;;;1.90;;
17686;SDS011;8962;52.538;13.266;2022-09-29T14:08:35;2.08;;;1.80;;
17686;SDS011;8962;52.538;13.266;2022-09-29T14:11:12;2.40;;;1.65;;
17686;SDS011;8962;52.538;13.266;2022-09-29T14:13:45;2.25;;;2.00;;
17686;SDS011;8962;52.538;13.266;2022-09-29T14:16:18;2.85;;;2.00;;
17686;SDS011;8962;52.538;13.266;2022-09-29T14:18:55;2.83;;;1.88;;
17686;SDS011;8962;52.538;13.266;2022-09-29T14:21:46;2.40;;;2.00;;
17686;SDS011;8962;52.538;13.266;2022-09-29T14:27:20;2.55;;;1.88;;
17686;SDS011;8962;52.538;13.266;2022-09-29T14:29:52;3.38;;;2.42;;
17686;SDS011;8962;52.538;13.266;2022-09-29T14:32:30;3.15;;;2.50;;
17686;SDS011;8962;52.538;13.266;2022-09-29T14:35:12;6.55;;;4.30;;
17686;SDS011;8962;52.538;13.266;2022-09-29T14:37:43;4.78;;;3.30;;
17686;SDS011;8962;52.538;13.266;2022-09-29T14:40:15;4.75;;;2.70;;
17686;SDS011;8962;52.538;13.266;2022-09-29T14:43:10;4.85;;;2.55;;
17686;SDS011;8962;52.538;13.266;2022-09-29T14:45:44;5.05;;;2.90;;
17686;SDS011;8962;52.538;13.266;2022-09-29T14:48:47;4.50;;;2.63;;
17686;SDS011;8962;52.538;13.266;2022-09-29T14:51:47;4.90;;;2.40;;
17686;SDS011;8962;52.538;13.266;2022-09-29T14:54:33;2.92;;;2.60;;
17686;SDS011;8962;52.538;13.266;2022-09-29T14:57:13;3.53;;;2.30;;
17686;SDS011;8962;52.538;13.266;2022-09-29T15:00:04;3.03;;;2.55;;
17686;SDS011;8962;52.538;13.266;2022-09-29T15:02:39;3.88;;;2.50;;
17686;SDS011;8962;52.538;13.266;2022-09-29T15:05:22;3.67;;;2.95;;
17686;SDS011;8962;52.538;13.266;2022-09-29T15:07:51;3.10;;;2.80;;
17686;SDS011;8962;52.538;13.266;2022-09-29T15:10:21;4.25;;;2.72;;
17686;SDS011;8962;52.538;13.266;2022-09-29T15:12:51;3.90;;;2.45;;
17686;SDS011;8962;52.538;13.266;2022-09-29T15:15:33;3.28;;;2.50;;
17686;SDS011;8962;52.538;13.266;2022-09-29T15:18:05;3.53;;;2.50;;
17686;SDS011;8962;52.538;13.266;2022-09-29T15:20:47;3.20;;;2.80;;
17686;SDS011;8962;52.538;13.266;2022-09-29T15:26:31;6.57;;;4.20;;
17686;SDS011;8962;52.538;13.266;2022-09-29T15:29:00;8.77;;;4.30;;
17686;SDS011;8962;52.538;13.266;2022-09-29T15:31:32;5.70;;;3.58;;
17686;SDS011;8962;52.538;13.266;2022-09-29T15:34:02;4.90;;;3.45;;
17686;SDS011;8962;52.538;13.266;2022-09-29T15:36:31;6.78;;;4.50;;
17686;SDS011;8962;52.538;13.266;2022-09-29T15:39:01;4.57;;;3.50;;